sensor_id;sensor_type;location;lat;lon;timestamp;pressure;altitude;pressure_sealevel;temperature;humidity
11049;BME280;5577;42.706;23.160;2023-11-19T00:01:32;94100.03;;;3.37;100.00
11049;BME280;5577;42.706;23.160;2023-11-19T00:04:16;94104.19;;;3.38;100.00
11049;BME280;5577;42.706;23.160;2023-11-19T00:07:00;94107.59;;;3.39;100.00
11049;BME280;5577;42.706;23.160;2023-11-19T00:09:47;94110.94;;;3.31;100.00
11049;BME280;5577;42.706;23.160;2023-11-19T00:12:31;94113.13;;;3.37;100.00
11049;BME280;5577;42.706;23.160;2023-11-19T00:15:17;94111.28;;;3.38;100.00
11049;BME280;5577;42.706;23.160;2023-11-19T00:18:02;94119.84;;;3.30;100.00
11049;BME280;5577;42.706;23.160;2023-11-19T00:20:48;94113.56;;;3.31;100.00
11049;BME280;5577;42.706;23.160;2023-11-19T00:23:32;94104.63;;;3.32;100.00
11049;BME280;5577;42.706;23.160;2023-11-19T00:26:16;94106.91;;;3.25;100.00
11049;BME280;5577;42.706;23.160;2023-11-19T00:29:00;94115.88;;;3.32;100.00
11049;BME280;5577;42.706;23.160;2023-11-19T00:31:44;94113.97;;;3.24;100.00
11049;BME280;5577;42.706;23.160;2023-11-19T00:34:28;94109.69;;;3.28;100.00
11049;BME280;5577;42.706;23.160;2023-11-19T00:37:13;94121.19;;;3.19;100.00
11049;BME280;5577;42.706;23.160;2023-11-19T00:39:58;94127.94;;;3.20;100.00
11049;BME280;5577;42.706;23.160;2023-11-19T00:42:42;94121.19;;;3.19;100.00
11049;BME280;5577;42.706;23.160;2023-11-19T00:45:27;94131.34;;;3.20;100.00
11049;BME280;5577;42.706;23.160;2023-11-19T00:48:12;94129.63;;;3.16;100.00
11049;BME280;5577;42.706;23.160;2023-11-19T00:50:56;94147.31;;;3.19;100.00
11049;BME280;5577;42.706;23.160;2023-11-19T00:53:40;94140.38;;;3.14;100.00
11049;BME280;5577;42.706;23.160;2023-11-19T00:56:24;94137.66;;;3.19;100.00
11049;BME280;5577;42.706;23.160;2023-11-19T00:59:08;94131.63;;;3.19;100.00
11049;BME280;5577;42.706;23.160;2023-11-19T01:01:52;94131.19;;;3.17;100.00
11049;BME280;5577;42.706;23.160;2023-11-19T01:04:36;94135.50;;;3.21;100.00
11049;BME280;5577;42.706;23.160;2023-11-19T01:07:20;94139.63;;;3.14;100.00
11049;BME280;5577;42.706;23.160;2023-11-19T01:10:06;94127.72;;;3.08;100.00
11049;BME280;5577;42.706;23.160;2023-11-19T01:12:52;94139.31;;;3.15;100.00
11049;BME280;5577;42.706;23.160;2023-11-19T01:15:36;94135.63;;;3.16;100.00
11049;BME280;5577;42.706;23.160;2023-11-19T01:18:20;94136.56;;;3.20;100.00
11049;BME280;5577;42.706;23.160;2023-11-19T01:21:05;94128.25;;;3.18;100.00
11049;BME280;5577;42.706;23.160;2023-11-19T01:23:49;94146.22;;;3.11;100.00
11049;BME280;5577;42.706;23.160;2023-11-19T01:26:33;94148.50;;;3.13;100.00
11049;BME280;5577;42.706;23.160;2023-11-19T01:29:17;94142.81;;;3.11;100.00
11049;BME280;5577;42.706;23.160;2023-11-19T01:32:00;94153.38;;;3.05;100.00
11049;BME280;5577;42.706;23.160;2023-11-19T01:34:44;94152.94;;;3.03;100.00
11049;BME280;5577;42.706;23.160;2023-11-19T01:37:28;94144.72;;;2.96;100.00
11049;BME280;5577;42.706;23.160;2023-11-19T01:40:12;94141.56;;;2.86;100.00
11049;BME280;5577;42.706;23.160;2023-11-19T01:42:56;94157.69;;;2.79;100.00
11049;BME280;5577;42.706;23.160;2023-11-19T01:45:40;94163.19;;;2.78;100.00
11049;BME280;5577;42.706;23.160;2023-11-19T01:48:24;94159.06;;;2.77;100.00
11049;BME280;5577;42.706;23.160;2023-11-19T01:51:09;94173.94;;;2.76;100.00
11049;BME280;5577;42.706;23.160;2023-11-19T01:53:53;94164.09;;;2.73;100.00
11049;BME280;5577;42.706;23.160;2023-11-19T01:56:40;94162.06;;;2.70;100.00
11049;BME280;5577;42.706;23.160;2023-11-19T01:59:24;94158.41;;;2.71;100.00
11049;BME280;5577;42.706;23.160;2023-11-19T02:02:10;94145.91;;;2.68;100.00
11049;BME280;5577;42.706;23.160;2023-11-19T02:04:56;94148.53;;;2.68;100.00
11049;BME280;5577;42.706;23.160;2023-11-19T02:07:40;94147.28;;;2.66;100.00
11049;BME280;5577;42.706;23.160;2023-11-19T02:10:24;94159.56;;;2.65;100.00
11049;BME280;5577;42.706;23.160;2023-11-19T02:13:08;94162.06;;;2.70;100.00
11049;BME280;5577;42.706;23.160;2023-11-19T02:15:54;94158.09;;;2.73;100.00
11049;BME280;5577;42.706;23.160;2023-11-19T02:18:38;94153.91;;;2.72;100.00
11049;BME280;5577;42.706;23.160;2023-11-19T02:21:22;94150.25;;;2.73;100.00
11049;BME280;5577;42.706;23.160;2023-11-19T02:24:08;94160.72;;;2.73;100.00
11049;BME280;5577;42.706;23.160;2023-11-19T02:29:40;94148.88;;;2.75;100.00
11049;BME280;5577;42.706;23.160;2023-11-19T02:32:27;94139.50;;;2.74;100.00
11049;BME280;5577;42.706;23.160;2023-11-19T02:35:12;94130.41;;;2.72;100.00
11049;BME280;5577;42.706;23.160;2023-11-19T02:37:56;94078.19;;;2.36;100.00
11049;BME280;5577;42.706;23.160;2023-11-19T02:40:40;94124.34;;;2.63;100.00
11049;BME280;5577;42.706;23.160;2023-11-19T02:43:23;94136.81;;;2.66;100.00
11049;BME280;5577;42.706;23.160;2023-11-19T02:46:07;94148.81;;;2.67;100.00
11049;BME280;5577;42.706;23.160;2023-11-19T02:48:52;94157.09;;;2.60;100.00
11049;BME280;5577;42.706;23.160;2023-11-19T02:51:36;94156.00;;;2.61;100.00
11049;BME280;5577;42.706;23.160;2023-11-19T02:54:20;94153.59;;;2.51;100.00
11049;BME280;5577;42.706;23.160;2023-11-19T02:57:05;94146.19;;;2.45;100.00
11049;BME280;5577;42.706;23.160;2023-11-19T02:59:49;94161.66;;;2.41;100.00
11049;BME280;5577;42.706;23.160;2023-11-19T03:02:33;94156.94;;;2.30;100.00
11049;BME280;5577;42.706;23.160;2023-11-19T03:05:17;94138.38;;;2.31;100.00
11049;BME280;5577;42.706;23.160;2023-11-19T03:08:01;94144.19;;;2.28;100.00
11049;BME280;5577;42.706;23.160;2023-11-19T03:10:45;94150.47;;;2.27;100.00
11049;BME280;5577;42.706;23.160;2023-11-19T03:13:29;94160.16;;;2.27;100.00
11049;BME280;5577;42.706;23.160;2023-11-19T03:16:13;94147.31;;;2.17;100.00
11049;BME280;5577;42.706;23.160;2023-11-19T03:18:57;94167.13;;;2.18;100.00
11049;BME280;5577;42.706;23.160;2023-11-19T03:21:41;94166.13;;;2.27;100.00
11049;BME280;5577;42.706;23.160;2023-11-19T03:24:25;94159.53;;;2.30;100.00
11049;BME280;5577;42.706;23.160;2023-11-19T03:27:10;94155.91;;;2.31;100.00
11049;BME280;5577;42.706;23.160;2023-11-19T03:29:55;94161.78;;;2.36;100.00
11049;BME280;5577;42.706;23.160;2023-11-19T03:32:39;94164.56;;;2.40;100.00
11049;BME280;5577;42.706;23.160;2023-11-19T03:35:23;94175.38;;;2.47;100.00
11049;BME280;5577;42.706;23.160;2023-11-19T03:38:08;94183.41;;;2.50;100.00
11049;BME280;5577;42.706;23.160;2023-11-19T03:40:51;94182.72;;;2.58;100.00
11049;BME280;5577;42.706;23.160;2023-11-19T03:43:35;94186.78;;;2.64;100.00
11049;BME280;5577;42.706;23.160;2023-11-19T03:46:20;94209.00;;;2.75;100.00
11049;BME280;5577;42.706;23.160;2023-11-19T03:49:05;94209.19;;;2.79;100.00
11049;BME280;5577;42.706;23.160;2023-11-19T03:51:51;94217.22;;;2.82;100.00
11049;BME280;5577;42.706;23.160;2023-11-19T03:54:35;94210.31;;;2.86;100.00
11049;BME280;5577;42.706;23.160;2023-11-19T03:57:19;94210.97;;;2.92;100.00
11049;BME280;5577;42.706;23.160;2023-11-19T04:00:03;94213.00;;;2.95;100.00
11049;BME280;5577;42.706;23.160;2023-11-19T04:02:57;94208.13;;;3.02;100.00
11049;BME280;5577;42.706;23.160;2023-11-19T04:05:42;94209.91;;;2.93;100.00
11049;BME280;5577;42.706;23.160;2023-11-19T04:08:26;94201.47;;;2.96;100.00
11049;BME280;5577;42.706;23.160;2023-11-19T04:11:10;94208.28;;;2.97;100.00
11049;BME280;5577;42.706;23.160;2023-11-19T04:13:54;94199.88;;;2.86;100.00
11049;BME280;5577;42.706;23.160;2023-11-19T04:16:39;94197.31;;;2.95;100.00
11049;BME280;5577;42.706;23.160;2023-11-19T04:19:23;94205.16;;;2.95;100.00
11049;BME280;5577;42.706;23.160;2023-11-19T04:22:08;94198.50;;;2.89;100.00
11049;BME280;5577;42.706;23.160;2023-11-19T04:24:53;94199.28;;;2.89;100.00
11049;BME280;5577;42.706;23.160;2023-11-19T04:27:36;94193.28;;;2.89;100.00
11049;BME280;5577;42.706;23.160;2023-11-19T04:30:20;94204.44;;;2.81;100.00
11049;BME280;5577;42.706;23.160;2023-11-19T04:33:05;94203.41;;;2.68;100.00
11049;BME280;5577;42.706;23.160;2023-11-19T04:35:49;94191.50;;;2.62;100.00
11049;BME280;5577;42.706;23.160;2023-11-19T04:38:33;94183.78;;;2.57;100.00
11049;BME280;5577;42.706;23.160;2023-11-19T04:41:18;94185.25;;;2.50;100.00
11049;BME280;5577;42.706;23.160;2023-11-19T04:44:02;94166.59;;;2.43;100.00
11049;BME280;5577;42.706;23.160;2023-11-19T04:46:47;94165.25;;;2.32;100.00
11049;BME280;5577;42.706;23.160;2023-11-19T04:49:31;94175.34;;;2.25;100.00
11049;BME280;5577;42.706;23.160;2023-11-19T04:52:15;94196.22;;;2.25;100.00
11049;BME280;5577;42.706;23.160;2023-11-19T04:54:59;94195.16;;;2.26;100.00
11049;BME280;5577;42.706;23.160;2023-11-19T04:57:43;94207.34;;;2.30;100.00
11049;BME280;5577;42.706;23.160;2023-11-19T05:00:27;94215.09;;;2.35;100.00
11049;BME280;5577;42.706;23.160;2023-11-19T05:03:11;94221.16;;;2.44;100.00
11049;BME280;5577;42.706;23.160;2023-11-19T05:05:54;94232.09;;;2.46;100.00
11049;BME280;5577;42.706;23.160;2023-11-19T05:08:38;94248.38;;;2.43;100.00
11049;BME280;5577;42.706;23.160;2023-11-19T05:11:22;94236.16;;;2.39;100.00
11049;BME280;5577;42.706;23.160;2023-11-19T05:14:06;94249.22;;;2.52;100.00
11049;BME280;5577;42.706;23.160;2023-11-19T05:16:50;94252.03;;;2.56;100.00
11049;BME280;5577;42.706;23.160;2023-11-19T05:19:34;94249.69;;;2.54;100.00
11049;BME280;5577;42.706;23.160;2023-11-19T05:22:18;94242.16;;;2.53;100.00
11049;BME280;5577;42.706;23.160;2023-11-19T05:25:02;94249.28;;;2.61;100.00
11049;BME280;5577;42.706;23.160;2023-11-19T05:27:46;94251.91;;;2.61;100.00
11049;BME280;5577;42.706;23.160;2023-11-19T05:30:30;94230.44;;;2.50;100.00
11049;BME280;5577;42.706;23.160;2023-11-19T05:33:14;94248.03;;;2.58;100.00
11049;BME280;5577;42.706;23.160;2023-11-19T05:35:58;94252.41;;;2.63;100.00
11049;BME280;5577;42.706;23.160;2023-11-19T05:38:42;94251.31;;;2.64;100.00
11049;BME280;5577;42.706;23.160;2023-11-19T05:41:26;94233.44;;;2.57;100.00
11049;BME280;5577;42.706;23.160;2023-11-19T05:44:09;94251.31;;;2.64;100.00
11049;BME280;5577;42.706;23.160;2023-11-19T05:46:53;94261.19;;;2.67;100.00
11049;BME280;5577;42.706;23.160;2023-11-19T05:49:37;94264.22;;;2.60;100.00
11049;BME280;5577;42.706;23.160;2023-11-19T05:52:22;94264.41;;;2.64;100.00
11049;BME280;5577;42.706;23.160;2023-11-19T05:55:07;94267.38;;;2.71;100.00
11049;BME280;5577;42.706;23.160;2023-11-19T05:57:53;94273.41;;;2.71;100.00
11049;BME280;5577;42.706;23.160;2023-11-19T06:00:38;94266.53;;;2.62;100.00
11049;BME280;5577;42.706;23.160;2023-11-19T06:03:24;94278.63;;;2.71;100.00
11049;BME280;5577;42.706;23.160;2023-11-19T06:06:08;94300.91;;;2.69;100.00
11049;BME280;5577;42.706;23.160;2023-11-19T06:08:52;94286.25;;;2.68;100.00
11049;BME280;5577;42.706;23.160;2023-11-19T06:11:36;94278.16;;;2.56;100.00
11049;BME280;5577;42.706;23.160;2023-11-19T06:14:20;94278.53;;;2.63;100.00
11049;BME280;5577;42.706;23.160;2023-11-19T06:17:04;94278.34;;;2.59;100.00
11049;BME280;5577;42.706;23.160;2023-11-19T06:19:48;94290.81;;;2.62;100.00
11049;BME280;5577;42.706;23.160;2023-11-19T06:22:32;94271.78;;;2.62;100.00
11049;BME280;5577;42.706;23.160;2023-11-19T06:25:16;94293.25;;;2.59;100.00
11049;BME280;5577;42.706;23.160;2023-11-19T06:28:00;94294.78;;;2.60;100.00
11049;BME280;5577;42.706;23.160;2023-11-19T06:30:44;94300.19;;;2.63;100.00
11049;BME280;5577;42.706;23.160;2023-11-19T06:33:28;94300.81;;;2.60;100.00
11049;BME280;5577;42.706;23.160;2023-11-19T06:36:14;94309.03;;;2.54;100.00
11049;BME280;5577;42.706;23.160;2023-11-19T06:39:00;94319.47;;;2.54;100.00
11049;BME280;5577;42.706;23.160;2023-11-19T06:41:45;94298.78;;;2.57;100.00
11049;BME280;5577;42.706;23.160;2023-11-19T06:44:29;94309.03;;;2.54;100.00
11049;BME280;5577;42.706;23.160;2023-11-19T06:47:13;94311.16;;;2.65;100.00
11049;BME280;5577;42.706;23.160;2023-11-19T06:49:58;94306.97;;;2.78;100.00
11049;BME280;5577;42.706;23.160;2023-11-19T06:52:42;94305.34;;;2.68;100.00
11049;BME280;5577;42.706;23.160;2023-11-19T06:55:26;94309.31;;;2.52;100.00
11049;BME280;5577;42.706;23.160;2023-11-19T06:58:11;94315.81;;;2.55;100.00
11049;BME280;5577;42.706;23.160;2023-11-19T07:00:56;94302.53;;;2.51;100.00
11049;BME280;5577;42.706;23.160;2023-11-19T07:03:41;94310.19;;;2.61;100.00
11049;BME280;5577;42.706;23.160;2023-11-19T07:06:25;94315.00;;;2.68;100.00
11049;BME280;5577;42.706;23.160;2023-11-19T07:09:10;94301.94;;;2.68;100.00
11049;BME280;5577;42.706;23.160;2023-11-19T07:11:54;94312.09;;;2.69;100.00
11049;BME280;5577;42.706;23.160;2023-11-19T07:14:38;94311.91;;;2.79;100.00
11049;BME280;5577;42.706;23.160;2023-11-19T07:17:22;94328.16;;;2.76;100.00
11049;BME280;5577;42.706;23.160;2023-11-19T07:20:08;94304.94;;;2.75;100.00
11049;BME280;5577;42.706;23.160;2023-11-19T07:22:52;94335.78;;;3.00;100.00
11049;BME280;5577;42.706;23.160;2023-11-19T07:25:36;94322.72;;;3.00;100.00
11049;BME280;5577;42.706;23.160;2023-11-19T07:28:21;94326.03;;;2.92;100.00
11049;BME280;5577;42.706;23.160;2023-11-19T07:31:05;94331.53;;;3.04;100.00
11049;BME280;5577;42.706;23.160;2023-11-19T07:33:51;94317.31;;;2.96;100.00
11049;BME280;5577;42.706;23.160;2023-11-19T07:36:35;94324.38;;;3.10;100.00
11049;BME280;5577;42.706;23.160;2023-11-19T07:39:19;94325.13;;;3.10;100.00
11049;BME280;5577;42.706;23.160;2023-11-19T07:42:07;94328.59;;;3.05;100.00
11049;BME280;5577;42.706;23.160;2023-11-19T07:44:51;94316.97;;;3.12;100.00
11049;BME280;5577;42.706;23.160;2023-11-19T07:47:35;94312.66;;;2.93;100.00
11049;BME280;5577;42.706;23.160;2023-11-19T07:50:19;94320.25;;;2.81;100.00
11049;BME280;5577;42.706;23.160;2023-11-19T07:53:03;94290.25;;;2.38;100.00
11049;BME280;5577;42.706;23.160;2023-11-19T07:55:48;94334.09;;;2.68;100.00
11049;BME280;5577;42.706;23.160;2023-11-19T07:58:32;94333.22;;;2.73;100.00
11049;BME280;5577;42.706;23.160;2023-11-19T08:01:16;94328.47;;;2.88;100.00
11049;BME280;5577;42.706;23.160;2023-11-19T08:04:00;94333.56;;;2.93;100.00
11049;BME280;5577;42.706;23.160;2023-11-19T08:06:45;94344.72;;;2.99;100.00
11049;BME280;5577;42.706;23.160;2023-11-19T08:09:29;94336.78;;;3.04;100.00
11049;BME280;5577;42.706;23.160;2023-11-19T08:12:13;94339.56;;;3.08;100.00
11049;BME280;5577;42.706;23.160;2023-11-19T08:15:02;94347.69;;;3.06;100.00
11049;BME280;5577;42.706;23.160;2023-11-19T08:17:46;94353.25;;;2.91;100.00
11049;BME280;5577;42.706;23.160;2023-11-19T08:20:31;94355.13;;;3.13;100.00
11049;BME280;5577;42.706;23.160;2023-11-19T08:23:15;94358.25;;;3.15;100.00
11049;BME280;5577;42.706;23.160;2023-11-19T08:25:59;94356.03;;;3.08;100.00
11049;BME280;5577;42.706;23.160;2023-11-19T08:28:43;94380.81;;;3.11;100.00
11049;BME280;5577;42.706;23.160;2023-11-19T08:31:27;94362.69;;;3.28;100.00
11049;BME280;5577;42.706;23.160;2023-11-19T08:34:11;94356.75;;;3.36;100.00
11049;BME280;5577;42.706;23.160;2023-11-19T08:36:55;94369.28;;;3.12;100.00
11049;BME280;5577;42.706;23.160;2023-11-19T08:39:39;94375.47;;;3.16;100.00
11049;BME280;5577;42.706;23.160;2023-11-19T08:42:25;94375.97;;;3.18;100.00
11049;BME280;5577;42.706;23.160;2023-11-19T08:45:09;94360.97;;;2.96;100.00
11049;BME280;5577;42.706;23.160;2023-11-19T08:47:53;94379.94;;;3.15;100.00
11049;BME280;5577;42.706;23.160;2023-11-19T08:50:37;94370.31;;;3.24;100.00
11049;BME280;5577;42.706;23.160;2023-11-19T08:53:21;94365.97;;;3.33;100.00
11049;BME280;5577;42.706;23.160;2023-11-19T08:56:05;94364.19;;;3.42;100.00
11049;BME280;5577;42.706;23.160;2023-11-19T08:58:50;94359.06;;;3.37;100.00
11049;BME280;5577;42.706;23.160;2023-11-19T09:01:34;94365.38;;;3.36;100.00
11049;BME280;5577;42.706;23.160;2023-11-19T09:04:18;94374.41;;;3.30;100.00
11049;BME280;5577;42.706;23.160;2023-11-19T09:07:01;94374.66;;;3.42;100.00
11049;BME280;5577;42.706;23.160;2023-11-19T09:09:47;94377.03;;;3.66;100.00
11049;BME280;5577;42.706;23.160;2023-11-19T09:12:31;94371.00;;;3.87;100.00
11049;BME280;5577;42.706;23.160;2023-11-19T09:15:15;94366.22;;;4.11;100.00
11049;BME280;5577;42.706;23.160;2023-11-19T09:17:59;94274.97;;;3.74;100.00
11049;BME280;5577;42.706;23.160;2023-11-19T09:20:43;94373.56;;;4.01;100.00
11049;BME280;5577;42.706;23.160;2023-11-19T09:23:27;94379.50;;;3.93;100.00
11049;BME280;5577;42.706;23.160;2023-11-19T09:26:14;94388.44;;;3.92;100.00
11049;BME280;5577;42.706;23.160;2023-11-19T09:28:58;94370.13;;;3.92;100.00
11049;BME280;5577;42.706;23.160;2023-11-19T09:31:42;94367.63;;;3.87;100.00
11049;BME280;5577;42.706;23.160;2023-11-19T09:34:26;94372.78;;;3.21;100.00
11049;BME280;5577;42.706;23.160;2023-11-19T09:37:11;94357.38;;;3.19;100.00
11049;BME280;5577;42.706;23.160;2023-11-19T09:39:55;94356.78;;;3.22;100.00
11049;BME280;5577;42.706;23.160;2023-11-19T09:42:43;94339.81;;;3.20;100.00
11049;BME280;5577;42.706;23.160;2023-11-19T09:45:32;94328.97;;;3.26;100.00
11049;BME280;5577;42.706;23.160;2023-11-19T09:48:24;94325.34;;;3.36;100.00
11049;BME280;5577;42.706;23.160;2023-11-19T09:51:09;94308.19;;;3.43;100.00
11049;BME280;5577;42.706;23.160;2023-11-19T09:53:54;94315.25;;;3.43;100.00
11049;BME280;5577;42.706;23.160;2023-11-19T09:56:38;94307.09;;;3.44;100.00
11049;BME280;5577;42.706;23.160;2023-11-19T09:59:22;94307.22;;;3.61;100.00
11049;BME280;5577;42.706;23.160;2023-11-19T10:02:07;94291.03;;;3.59;100.00
11049;BME280;5577;42.706;23.160;2023-11-19T10:04:52;94307.16;;;3.31;100.00
11049;BME280;5577;42.706;23.160;2023-11-19T10:07:36;94296.78;;;3.26;100.00
11049;BME280;5577;42.706;23.160;2023-11-19T10:10:21;94294.97;;;3.48;100.00
11049;BME280;5577;42.706;23.160;2023-11-19T10:13:05;94296.03;;;3.69;100.00
11049;BME280;5577;42.706;23.160;2023-11-19T10:15:52;94306.91;;;3.85;100.00
11049;BME280;5577;42.706;23.160;2023-11-19T10:18:37;94321.78;;;3.98;100.00
11049;BME280;5577;42.706;23.160;2023-11-19T10:21:22;94316.31;;;4.08;100.00
11049;BME280;5577;42.706;23.160;2023-11-19T10:24:07;94280.13;;;3.88;100.00
11049;BME280;5577;42.706;23.160;2023-11-19T10:26:51;94296.94;;;3.87;100.00
11049;BME280;5577;42.706;23.160;2023-11-19T10:29:38;94287.94;;;4.10;100.00
11049;BME280;5577;42.706;23.160;2023-11-19T10:32:22;94291.50;;;4.14;100.00
11049;BME280;5577;42.706;23.160;2023-11-19T10:35:06;94286.31;;;4.22;100.00
11049;BME280;5577;42.706;23.160;2023-11-19T10:37:50;94286.00;;;4.24;100.00
11049;BME280;5577;42.706;23.160;2023-11-19T10:40:38;94285.13;;;4.37;100.00
11049;BME280;5577;42.706;23.160;2023-11-19T10:43:25;94286.94;;;4.28;100.00
11049;BME280;5577;42.706;23.160;2023-11-19T10:46:11;94285.69;;;4.25;100.00
11049;BME280;5577;42.706;23.160;2023-11-19T10:48:55;94296.56;;;4.41;100.00
11049;BME280;5577;42.706;23.160;2023-11-19T10:51:45;94287.16;;;4.40;100.00
11049;BME280;5577;42.706;23.160;2023-11-19T10:54:30;94291.72;;;4.73;100.00
11049;BME280;5577;42.706;23.160;2023-11-19T10:57:20;94291.13;;;4.93;100.00
11049;BME280;5577;42.706;23.160;2023-11-19T11:00:08;94283.91;;;5.07;100.00
11049;BME280;5577;42.706;23.160;2023-11-19T11:03:00;94277.88;;;4.90;100.00
11049;BME280;5577;42.706;23.160;2023-11-19T11:05:47;94261.34;;;4.89;100.00
11049;BME280;5577;42.706;23.160;2023-11-19T11:08:34;94246.56;;;5.19;100.00
11049;BME280;5577;42.706;23.160;2023-11-19T11:11:20;94243.63;;;5.63;100.00
11049;BME280;5577;42.706;23.160;2023-11-19T11:14:07;94239.56;;;5.91;100.00
11049;BME280;5577;42.706;23.160;2023-11-19T11:16:53;94202.75;;;5.11;100.00
11049;BME280;5577;42.706;23.160;2023-11-19T11:19:37;94237.94;;;5.18;100.00
11049;BME280;5577;42.706;23.160;2023-11-19T11:22:22;94225.28;;;5.12;100.00
11049;BME280;5577;42.706;23.160;2023-11-19T11:25:21;94209.06;;;5.01;100.00
11049;BME280;5577;42.706;23.160;2023-11-19T11:38:14;94221.16;;;7.28;85.43
11049;BME280;5577;42.706;23.160;2023-11-19T11:41:21;94210.06;;;8.32;75.76
11049;BME280;5577;42.706;23.160;2023-11-19T11:44:06;94216.91;;;8.00;72.82
11049;BME280;5577;42.706;23.160;2023-11-19T11:46:53;94184.13;;;6.71;75.48
11049;BME280;5577;42.706;23.160;2023-11-19T11:49:38;94207.44;;;7.02;81.39
11049;BME280;5577;42.706;23.160;2023-11-19T11:52:22;94211.84;;;7.95;76.86
11049;BME280;5577;42.706;23.160;2023-11-19T11:55:06;94218.00;;;8.56;72.21
11049;BME280;5577;42.706;23.160;2023-11-19T11:57:54;94208.69;;;9.38;68.14
11049;BME280;5577;42.706;23.160;2023-11-19T12:00:40;94212.16;;;9.54;65.16
11049;BME280;5577;42.706;23.160;2023-11-19T12:03:27;94205.97;;;9.22;67.52
11049;BME280;5577;42.706;23.160;2023-11-19T12:06:11;94201.59;;;11.09;64.19
11049;BME280;5577;42.706;23.160;2023-11-19T12:09:02;94048.91;;;12.33;52.65
11049;BME280;5577;42.706;23.160;2023-11-19T12:11:47;94178.06;;;13.88;47.36
11049;BME280;5577;42.706;23.160;2023-11-19T12:15:00;94184.53;;;12.47;48.52
11049;BME280;5577;42.706;23.160;2023-11-19T12:17:51;94178.50;;;10.56;54.46
11049;BME280;5577;42.706;23.160;2023-11-19T12:20:35;94171.50;;;10.48;57.72
11049;BME280;5577;42.706;23.160;2023-11-19T12:23:23;94167.53;;;11.26;55.86
11049;BME280;5577;42.706;23.160;2023-11-19T12:26:07;94164.72;;;12.93;52.17
11049;BME280;5577;42.706;23.160;2023-11-19T12:28:58;94135.41;;;14.18;45.66
11049;BME280;5577;42.706;23.160;2023-11-19T12:31:44;94171.38;;;15.64;43.00
11049;BME280;5577;42.706;23.160;2023-11-19T12:34:28;94176.06;;;15.13;42.03
11049;BME280;5577;42.706;23.160;2023-11-19T12:37:12;94158.38;;;14.36;44.64
11049;BME280;5577;42.706;23.160;2023-11-19T12:39:57;94157.75;;;14.10;43.49
11049;BME280;5577;42.706;23.160;2023-11-19T12:42:42;94151.69;;;13.73;44.28
11049;BME280;5577;42.706;23.160;2023-11-19T12:45:35;94151.38;;;12.89;45.94
11049;BME280;5577;42.706;23.160;2023-11-19T12:48:18;94155.50;;;11.90;47.11
11049;BME280;5577;42.706;23.160;2023-11-19T12:51:02;94146.28;;;11.61;47.23
11049;BME280;5577;42.706;23.160;2023-11-19T12:53:53;94148.41;;;11.55;47.14
11049;BME280;5577;42.706;23.160;2023-11-19T12:56:52;94131.31;;;11.72;48.67
11049;BME280;5577;42.706;23.160;2023-11-19T12:59:37;94133.16;;;11.30;46.89
11049;BME280;5577;42.706;23.160;2023-11-19T13:02:21;94137.78;;;11.14;47.45
11049;BME280;5577;42.706;23.160;2023-11-19T13:05:35;94136.81;;;12.80;45.09
11049;BME280;5577;42.706;23.160;2023-11-19T13:08:20;94144.94;;;12.90;44.43
11049;BME280;5577;42.706;23.160;2023-11-19T13:11:04;94138.66;;;12.76;44.22
11049;BME280;5577;42.706;23.160;2023-11-19T13:16:38;94130.25;;;12.44;43.98
11049;BME280;5577;42.706;23.160;2023-11-19T13:19:22;94129.56;;;11.80;45.39
11049;BME280;5577;42.706;23.160;2023-11-19T13:22:08;94134.84;;;11.00;46.78
11049;BME280;5577;42.706;23.160;2023-11-19T13:24:52;94115.63;;;10.18;48.56
11049;BME280;5577;42.706;23.160;2023-11-19T13:27:36;94111.63;;;8.79;51.44
11049;BME280;5577;42.706;23.160;2023-11-19T13:30:21;94122.66;;;8.57;52.87
11049;BME280;5577;42.706;23.160;2023-11-19T13:33:06;94117.72;;;8.44;54.66
11049;BME280;5577;42.706;23.160;2023-11-19T13:35:50;94125.13;;;8.26;54.95
11049;BME280;5577;42.706;23.160;2023-11-19T13:38:35;94140.50;;;8.24;55.72
11049;BME280;5577;42.706;23.160;2023-11-19T13:41:20;94143.09;;;8.00;56.62
11049;BME280;5577;42.706;23.160;2023-11-19T13:44:04;94137.91;;;7.68;57.28
11049;BME280;5577;42.706;23.160;2023-11-19T13:46:48;94148.72;;;7.54;59.02
11049;BME280;5577;42.706;23.160;2023-11-19T13:49:32;94141.00;;;7.37;59.91
11049;BME280;5577;42.706;23.160;2023-11-19T13:52:17;94138.97;;;7.55;60.23
11049;BME280;5577;42.706;23.160;2023-11-19T13:55:01;94144.88;;;7.40;61.10
11049;BME280;5577;42.706;23.160;2023-11-19T13:57:45;94145.03;;;7.23;62.00
11049;BME280;5577;42.706;23.160;2023-11-19T14:00:30;94151.38;;;7.22;63.13
11049;BME280;5577;42.706;23.160;2023-11-19T14:03:14;94158.13;;;7.31;64.26
11049;BME280;5577;42.706;23.160;2023-11-19T14:05:58;94166.16;;;7.14;64.27
11049;BME280;5577;42.706;23.160;2023-11-19T14:08:42;94168.22;;;6.88;65.71
11049;BME280;5577;42.706;23.160;2023-11-19T14:11:26;94171.50;;;6.85;66.65
11049;BME280;5577;42.706;23.160;2023-11-19T14:14:10;94174.09;;;6.65;68.02
11049;BME280;5577;42.706;23.160;2023-11-19T14:16:54;94178.41;;;6.49;71.13
11049;BME280;5577;42.706;23.160;2023-11-19T14:19:38;94166.88;;;6.33;71.93
11049;BME280;5577;42.706;23.160;2023-11-19T14:22:23;94156.09;;;5.97;75.66
11049;BME280;5577;42.706;23.160;2023-11-19T14:25:08;94111.03;;;5.69;79.18
11049;BME280;5577;42.706;23.160;2023-11-19T14:27:54;94170.75;;;5.97;81.16
11049;BME280;5577;42.706;23.160;2023-11-19T14:30:38;94160.28;;;5.89;80.77
11049;BME280;5577;42.706;23.160;2023-11-19T14:33:22;94160.59;;;5.87;82.01
11049;BME280;5577;42.706;23.160;2023-11-19T14:36:06;94155.06;;;5.72;83.64
11049;BME280;5577;42.706;23.160;2023-11-19T14:38:51;94028.88;;;4.85;85.26
11049;BME280;5577;42.706;23.160;2023-11-19T14:41:35;94156.47;;;5.61;85.25
11049;BME280;5577;42.706;23.160;2023-11-19T14:44:19;94163.31;;;5.53;88.06
11049;BME280;5577;42.706;23.160;2023-11-19T14:47:04;94166.91;;;5.40;89.10
11049;BME280;5577;42.706;23.160;2023-11-19T14:49:48;94172.16;;;5.32;88.42
11049;BME280;5577;42.706;23.160;2023-11-19T14:52:32;94171.25;;;5.28;89.25